ROTAER D-AMDT 28/21 Ver mudanças

Estadual Arthur Siqueira ( SBBP ) / BRAGANÇA PAULISTA, SP 22 58 45S/046 32 15W
AD PUB VOA SÃO PAULO 3S UTC-3 VFR L21 , L26 893 (2930)

16 - L12 - ( 1200x30 ASPH 16/F/B/X/T L14 , L15 ) - L12 - 34

SBBS (CRCEA-SE)
COM -
RÁDIO [5] 125.700 [1]
RDONAV -
VOR/DME BGC 116.2 2257.09S/04634.19W
CMB- [2] [3] PF TF
MET - MET CIVIL –

[4] [5]

AIS - [4] [5] [6] AIS CIVIL – [4] [5] [6]

RMK -

REGULAMENTOS PARA TRÁFEGO LOCAL
  1. Todas ACFT que pretendem realizar FLT TGL deverão efetuar COOR prévia com a RDO Bragança via tel (11) 4034-7612, LTD a cinco ACFT simultaneamente no circuito de TFC.
  2. OBS ACFT em voo de instrução próximo ao AD
INFORMAÇÃO ADICIONAL
  1. HR SER 1100/2100. Demais HR O/R através do TEL: (11) 4034 -7610 (VOA São Paulo)
COMPL -
  • [1] LTD para raio 3NM FM centro AD SFC/4500FT AMSL
  • [2] (MON,TUE,WED,THU,FRI 1000-2200)
  • [3] (SAT,SUN 1000-2100)
  • [4] Autoatendimento
  • [5] (DLY 1015-2145)
  • [6] Para informações adicionais consultar a sala AIS SBGR TEL: (11) 2445-3185.
TEMP (1)
INFOTEMP 1468M/21
AFIS BRAGANCA FREQ 125.700MHZ HR SER MODIFICADO PARA 1015-1500 1600-2145

Duração: 03/08/21 10:15 a 03/01/22 21:45 UTC | Divulgação: 02/08/2021 22:52


Suplementos AIP (0)

NOTAM (0)

Nascer/Por do Sol

08:58

21:01


METAR

182000Z 24006KT CAVOK 31/11 Q1016=

TAF

181620Z 1818/1906 33005KT CAVOK TX32/1818Z TN19/1905Z BECMG 1819/1821 15005KT RMK PGL=


Cartas (1)

VAC



Rotas Preferenciais (0)